Time;durP1;ratioP1;P1;durP2;ratioP2;P2;SDS_P1;SDS_P2;PMS_P1;PMS_P2;Temp;Humidity;BMP_temperature;BMP_pressure;BME280_temperature;BME280_humidity;BME280_pressure;Samples;Min_cycle;Max_cycle;Signal;HPM_P1;HPM_P2
2021/01/22 00:00:10;;;;;;;3.75;1.08;;;10.50;99.90;;;;;;4165166;28;20036;-84
2021/01/22 00:02:11;;;;;;;1.63;0.65;;;10.50;99.90;;;;;;4156010;28;20038;-84
2021/01/22 00:04:26;;;;;;;5.40;1.25;;;10.40;99.90;;;;;;4154087;28;20041;-84
2021/01/22 00:06:26;;;;;;;3.35;0.75;;;10.40;99.90;;;;;;4163611;28;20048;-84
2021/01/22 00:08:27;;;;;;;2.92;0.90;;;10.40;99.90;;;;;;4154259;28;20483;-84
2021/01/22 00:10:28;;;;;;;1.85;0.88;;;10.30;99.90;;;;;;4160438;28;20037;-84
2021/01/22 00:12:28;;;;;;;7.78;0.88;;;10.30;99.90;;;;;;4175329;28;20106;-84
2021/01/22 00:14:29;;;;;;;2.72;0.95;;;10.30;99.90;;;;;;4159207;28;20051;-84
2021/01/22 00:16:30;;;;;;;3.83;0.70;;;10.20;99.90;;;;;;4134067;28;20152;-84
2021/01/22 00:18:30;;;;;;;2.63;0.80;;;10.20;99.90;;;;;;4144009;28;20057;-84
2021/01/22 00:20:31;;;;;;;3.50;1.23;;;10.20;99.90;;;;;;4176069;28;20060;-84
2021/01/22 00:22:51;;;;;;;2.17;0.57;;;10.20;99.90;;;;;;4166389;28;20038;-84
2021/01/22 00:24:52;;;;;;;1.27;0.57;;;10.20;99.90;;;;;;4158208;28;20048;-84
2021/01/22 00:26:59;;;;;;;2.63;0.88;;;10.10;99.90;;;;;;4141059;28;20121;-84
2021/01/22 00:29:00;;;;;;;2.92;0.95;;;10.20;99.90;;;;;;4180994;28;20036;-84
2021/01/22 00:31:00;;;;;;;1.33;0.70;;;10.10;99.90;;;;;;4152265;28;20076;-84
2021/01/22 00:33:01;;;;;;;1.52;0.77;;;10.10;99.90;;;;;;4176916;28;20514;-84
2021/01/22 00:35:04;;;;;;;0.88;0.60;;;10.10;99.90;;;;;;4135676;28;20038;-84
2021/01/22 00:37:04;;;;;;;1.95;0.80;;;10.10;99.90;;;;;;4146454;28;20033;-84
2021/01/22 00:39:05;;;;;;;1.73;0.73;;;10.10;99.90;;;;;;4186541;28;20048;-84
2021/01/22 00:41:06;;;;;;;2.03;0.80;;;10.00;99.90;;;;;;4156217;28;20065;-84
2021/01/22 00:43:07;;;;;;;1.85;0.95;;;10.00;99.90;;;;;;4156675;28;20086;-84
2021/01/22 00:45:09;;;;;;;2.30;0.60;;;10.00;99.90;;;;;;4169067;28;20036;-84
2021/01/22 00:47:10;;;;;;;2.80;0.80;;;10.00;99.90;;;;;;4162603;28;20691;-84
2021/01/22 00:49:11;;;;;;;4.93;0.95;;;10.00;99.90;;;;;;4167717;28;20041;-84
2021/01/22 00:51:11;;;;;;;1.55;0.70;;;10.00;99.90;;;;;;4158828;28;20034;-84
2021/01/22 00:53:12;;;;;;;1.67;0.70;;;10.00;99.90;;;;;;4143724;28;20082;-84
2021/01/22 00:55:13;;;;;;;3.15;0.77;;;9.90;99.90;;;;;;4160309;28;20041;-84
2021/01/22 00:57:15;;;;;;;2.50;0.80;;;10.00;99.90;;;;;;4159468;28;20037;-84
2021/01/22 00:59:16;;;;;;;3.33;0.70;;;9.90;99.90;;;;;;4166624;28;20088;-84
2021/01/22 01:01:16;;;;;;;3.10;0.73;;;9.90;99.90;;;;;;4130553;28;20554;-84
2021/01/22 01:03:17;;;;;;;2.22;0.73;;;9.90;99.90;;;;;;4152784;28;20117;-84
2021/01/22 01:05:17;;;;;;;4.68;1.25;;;9.90;99.90;;;;;;4162252;28;20041;-84
2021/01/22 01:07:18;;;;;;;6.05;1.10;;;9.90;99.90;;;;;;4162713;28;20049;-84
2021/01/22 01:09:21;;;;;;;4.60;0.65;;;9.90;99.90;;;;;;4168971;28;20521;-84
2021/01/22 01:11:22;;;;;;;3.97;0.95;;;9.90;99.90;;;;;;4155688;28;20109;-84
2021/01/22 01:13:22;;;;;;;4.43;1.10;;;9.90;99.90;;;;;;4176825;28;20088;-84
2021/01/22 01:15:23;;;;;;;2.58;0.68;;;9.90;99.90;;;;;;4166931;28;20121;-83
2021/01/22 01:17:24;;;;;;;3.45;0.93;;;9.90;99.90;;;;;;4131237;28;20041;-83
2021/01/22 01:19:24;;;;;;;2.97;0.82;;;9.90;99.90;;;;;;4168076;28;20036;-84
2021/01/22 01:21:25;;;;;;;3.80;1.20;;;10.00;99.90;;;;;;4165647;28;20030;-84
2021/01/22 01:23:32;;;;;;;4.40;1.70;;;10.00;99.90;;;;;;4167788;28;20057;-84
2021/01/22 01:25:33;;;;;;;4.68;1.25;;;10.00;99.90;;;;;;4154952;28;20497;-84
2021/01/22 01:27:36;;;;;;;9.57;1.10;;;9.90;99.90;;;;;;4153148;28;20029;-84
2021/01/22 01:29:44;;;;;;;;;;;9.60;99.90;;;;;;4146196;28;20128;-84
2021/01/22 01:32:05;;;;;;;3.97;0.40;;;9.30;99.90;;;;;;4160194;28;19917;-84
2021/01/22 01:34:05;;;;;;;1.02;0.40;;;9.10;99.90;;;;;;4162218;28;20025;-84
2021/01/22 01:36:14;;;;;;;1.80;0.70;;;8.80;99.90;;;;;;4146212;28;20057;-84
2021/01/22 01:38:15;;;;;;;1.95;0.60;;;8.50;99.90;;;;;;4159461;28;20037;-83
2021/01/22 01:40:16;;;;;;;1.00;0.95;;;8.20;99.90;;;;;;4163976;28;20148;-83
2021/01/22 01:42:27;;;;;;;1.42;1.10;;;8.10;99.90;;;;;;4165400;28;20439;-83
2021/01/22 01:44:33;;;;;;;1.00;0.90;;;7.90;99.90;;;;;;4142952;28;20072;-83
2021/01/22 01:46:42;;;;;;;1.33;0.98;;;7.70;99.90;;;;;;4157662;28;20621;-83
2021/01/22 01:48:55;;;;;;;2.28;1.25;;;7.60;99.90;;;;;;4145705;28;20038;-83
2021/01/22 01:50:58;;;;;;;2.15;1.33;;;7.50;99.90;;;;;;4150065;28;20577;-83
2021/01/22 01:53:07;;;;;;;1.65;1.40;;;7.40;99.90;;;;;;4162008;28;20596;-83
2021/01/22 01:55:08;;;;;;;2.58;1.55;;;7.30;99.90;;;;;;4167080;28;20473;-83
2021/01/22 01:57:13;;;;;;;2.47;1.55;;;7.10;99.90;;;;;;4168771;28;20048;-83
2021/01/22 01:59:14;;;;;;;;;;;7.10;99.90;;;;;;4166011;28;20043;-83
2021/01/22 02:01:18;;;;;;;0.90;0.90;;;6.90;99.90;;;;;;4159850;28;19956;-83
2021/01/22 02:03:19;;;;;;;3.28;1.10;;;6.80;99.90;;;;;;4149307;28;20037;-83
2021/01/22 02:05:20;;;;;;;0.65;0.50;;;6.60;99.90;;;;;;4171005;28;20032;-83
2021/01/22 02:07:20;;;;;;;0.47;0.43;;;6.50;99.90;;;;;;4137858;28;20034;-83
2021/01/22 02:09:21;;;;;;;0.80;0.57;;;6.30;99.90;;;;;;4161703;28;20033;-83
2021/01/22 02:11:22;;;;;;;1.55;0.52;;;6.30;99.90;;;;;;4142222;28;20022;-83
2021/01/22 02:13:22;;;;;;;1.65;0.50;;;6.20;99.90;;;;;;4159963;28;20021;-83
2021/01/22 02:15:23;;;;;;;1.05;0.70;;;6.10;99.90;;;;;;4162033;28;20029;-83
2021/01/22 02:17:24;;;;;;;1.52;0.90;;;6.10;99.90;;;;;;4159393;28;20033;-83
2021/01/22 02:20:01;;;;;;;1.13;0.80;;;6.00;99.90;;;;;;4156271;28;20128;-83
2021/01/22 02:22:02;;;;;;;1.00;0.93;;;6.00;99.90;;;;;;4147330;28;20025;-83
2021/01/22 02:24:22;;;;;;;1.10;0.98;;;5.90;99.90;;;;;;4162080;28;20781;-83
2021/01/22 02:26:29;;;;;;;0.90;0.90;;;5.80;99.90;;;;;;4168952;28;20067;-83
2021/01/22 02:28:37;;;;;;;0.90;0.80;;;5.80;99.90;;;;;;4161105;28;20118;-83
2021/01/22 02:30:44;;;;;;;1.02;1.00;;;5.70;99.90;;;;;;4177372;28;20097;-83
2021/01/22 02:32:47;;;;;;;1.17;1.08;;;5.70;99.90;;;;;;4155053;28;20041;-83
2021/01/22 02:35:04;;;;;;;1.05;1.02;;;5.70;99.90;;;;;;4145524;28;20034;-84
2021/01/22 02:37:17;;;;;;;1.05;0.95;;;5.70;99.90;;;;;;4167111;28;20133;-83
2021/01/22 02:39:21;;;;;;;1.33;0.70;;;5.70;99.90;;;;;;4177330;28;20036;-83
2021/01/22 02:41:22;;;;;;;0.80;0.80;;;5.70;99.90;;;;;;4143472;28;20034;-83
2021/01/22 02:43:25;;;;;;;1.15;1.00;;;5.70;99.90;;;;;;4160889;28;20040;-83
2021/01/22 02:45:26;;;;;;;;;;;5.70;99.90;;;;;;4158691;28;20038;-83
2021/01/22 02:47:28;;;;;;;1.02;0.80;;;5.70;99.90;;;;;;4164515;28;19918;-83
2021/01/22 02:49:28;;;;;;;1.15;0.55;;;5.80;99.90;;;;;;4141120;28;20037;-83
2021/01/22 02:51:29;;;;;;;1.30;1.00;;;5.80;99.90;;;;;;4155726;28;20109;-83
2021/01/22 02:53:47;;;;;;;1.88;0.98;;;5.80;99.90;;;;;;4145014;28;20033;-83
2021/01/22 02:55:52;;;;;;;0.80;0.80;;;5.80;99.90;;;;;;4175022;28;20037;-83
2021/01/22 02:58:23;;;;;;;1.02;0.90;;;5.80;99.90;;;;;;4138767;28;20026;-83
2021/01/22 03:00:34;;;;;;;0.75;0.75;;;5.80;99.90;;;;;;4160379;28;20044;-83
2021/01/22 03:02:56;;;;;;;1.13;0.90;;;5.80;99.90;;;;;;4160522;28;20064;-83
2021/01/22 03:04:57;;;;;;;0.80;0.80;;;5.80;99.90;;;;;;4179348;28;20084;-83
2021/01/22 03:07:21;;;;;;;0.98;0.80;;;5.80;99.90;;;;;;4152172;28;20045;-83
2021/01/22 03:09:24;;;;;;;5.65;0.70;;;5.90;99.90;;;;;;4176404;28;20040;-83
2021/01/22 03:11:26;;;;;;;0.80;0.80;;;5.90;99.90;;;;;;4167302;28;20044;-83
2021/01/22 03:13:27;;;;;;;2.00;0.90;;;5.80;99.90;;;;;;4147665;28;20034;-83
2021/01/22 03:15:28;;;;;;;1.02;0.90;;;5.80;99.90;;;;;;4160441;28;20041;-83
2021/01/22 03:17:29;;;;;;;1.83;0.90;;;5.80;99.90;;;;;;4162883;28;20084;-83
2021/01/22 03:19:43;;;;;;;0.80;0.75;;;5.80;99.90;;;;;;4131407;28;20121;-83
2021/01/22 03:21:44;;;;;;;0.85;0.80;;;5.80;99.90;;;;;;4152456;28;20051;-83
2021/01/22 03:23:44;;;;;;;1.10;1.00;;;5.80;99.90;;;;;;4151356;28;20059;-83
2021/01/22 03:25:46;;;;;;;1.58;0.98;;;5.80;99.90;;;;;;4157919;28;20030;-83
2021/01/22 03:27:55;;;;;;;1.50;1.35;;;5.70;99.90;;;;;;4148101;28;20084;-83
2021/01/22 03:29:56;;;;;;;1.77;1.30;;;5.70;99.90;;;;;;4159807;28;20614;-83
2021/01/22 03:32:29;;;;;;;2.53;1.20;;;5.70;99.90;;;;;;4136623;28;20124;-83
2021/01/22 03:34:30;;;;;;;3.35;1.90;;;5.70;99.90;;;;;;4143128;28;20034;-83
2021/01/22 03:36:30;;;;;;;1.92;1.55;;;5.60;99.90;;;;;;4159363;28;20116;-83
2021/01/22 03:38:38;;;;;;;1.92;1.70;;;5.60;99.90;;;;;;4152775;28;20038;-83
2021/01/22 03:40:39;;;;;;;1.75;1.65;;;5.60;99.90;;;;;;4137907;28;20510;-83
2021/01/22 03:42:39;;;;;;;2.20;2.00;;;5.60;99.90;;;;;;4164555;28;20048;-83
2021/01/22 03:44:42;;;;;;;2.13;1.92;;;5.60;99.90;;;;;;4157426;28;20038;-83
2021/01/22 03:46:44;;;;;;;2.80;2.05;;;5.60;99.90;;;;;;4145444;28;20053;-83
2021/01/22 03:48:46;;;;;;;2.45;2.25;;;5.60;99.90;;;;;;4161419;28;20063;-83
2021/01/22 03:50:57;;;;;;;2.60;2.40;;;5.60;99.90;;;;;;4165726;28;20033;-83
2021/01/22 03:53:10;;;;;;;2.72;2.40;;;5.60;99.90;;;;;;4164327;28;20263;-83
2021/01/22 03:55:18;;;;;;;3.33;2.42;;;5.60;99.90;;;;;;4161349;28;20034;-83
2021/01/22 03:57:18;;;;;;;2.95;2.70;;;5.60;99.90;;;;;;4145467;28;20026;-83
2021/01/22 03:59:19;;;;;;;3.60;3.00;;;5.60;99.90;;;;;;4160915;28;20038;-83
2021/01/22 04:01:22;;;;;;;3.00;2.80;;;5.60;99.90;;;;;;4161521;28;20111;-83
2021/01/22 04:03:24;;;;;;;;;;;5.60;99.90;;;;;;4171712;28;20025;-83
2021/01/22 04:05:36;;;;;;;3.60;3.30;;;5.60;99.90;;;;;;4159138;28;19956;-83
2021/01/22 04:07:50;;;;;;;3.30;3.00;;;5.60;99.90;;;;;;4141909;28;20030;-83
2021/01/22 04:09:53;;;;;;;3.55;3.20;;;5.60;99.90;;;;;;4151804;28;20033;-83
2021/01/22 04:11:53;;;;;;;4.20;3.45;;;5.60;99.90;;;;;;4159704;28;20509;-83
2021/01/22 04:13:54;;;;;;;3.70;3.38;;;5.60;99.90;;;;;;4132118;28;20128;-83
2021/01/22 04:15:54;;;;;;;3.60;3.00;;;5.50;99.90;;;;;;4151091;28;20139;-83
2021/01/22 04:17:55;;;;;;;3.13;2.83;;;5.50;99.90;;;;;;4163931;28;20022;-83
2021/01/22 04:19:56;;;;;;;3.80;3.50;;;5.50;99.90;;;;;;4167385;28;20099;-83
2021/01/22 04:21:56;;;;;;;3.20;2.90;;;5.50;99.90;;;;;;4156748;28;21646;-83
2021/01/22 04:23:59;;;;;;;4.15;3.00;;;5.40;99.90;;;;;;4141604;28;20113;-83
2021/01/22 04:26:00;;;;;;;4.20;3.42;;;5.40;99.90;;;;;;4142941;28;20068;-83
2021/01/22 04:28:01;;;;;;;3.75;3.38;;;5.50;99.90;;;;;;4156722;28;20117;-83
2021/01/22 04:30:02;;;;;;;4.82;3.25;;;5.40;99.90;;;;;;4129776;28;20035;-83
2021/01/22 04:32:03;;;;;;;3.63;3.33;;;5.40;99.90;;;;;;4152965;28;20033;-83
2021/01/22 04:34:04;;;;;;;3.53;3.10;;;5.50;99.90;;;;;;4177819;28;20067;-83
2021/01/22 04:36:19;;;;;;;3.75;3.20;;;5.40;99.90;;;;;;4162589;28;20583;-83
2021/01/22 04:38:19;;;;;;;4.38;3.35;;;5.40;99.90;;;;;;4191329;28;20029;-83
2021/01/22 04:40:23;;;;;;;3.50;3.00;;;5.40;99.90;;;;;;4163207;28;20436;-83
2021/01/22 04:42:24;;;;;;;4.65;3.00;;;5.40;99.90;;;;;;4149734;28;20452;-83
2021/01/22 04:44:25;;;;;;;6.70;3.30;;;5.50;99.90;;;;;;4161925;28;20049;-83
2021/01/22 04:46:27;;;;;;;5.03;3.28;;;5.50;99.90;;;;;;4160689;28;20056;-83
2021/01/22 04:48:40;;;;;;;4.25;3.17;;;5.40;99.90;;;;;;4144598;28;20125;-83
2021/01/22 04:50:42;;;;;;;3.78;3.30;;;5.50;99.90;;;;;;4159870;28;20029;-83
2021/01/22 04:52:44;;;;;;;5.20;3.38;;;5.50;99.90;;;;;;4165724;28;20548;-83
2021/01/22 04:54:47;;;;;;;4.53;3.33;;;5.50;99.90;;;;;;4178973;28;20119;-83
2021/01/22 04:56:49;;;;;;;4.78;3.60;;;5.50;99.90;;;;;;4155924;28;20026;-83
2021/01/22 04:59:00;;;;;;;5.15;3.53;;;5.50;99.90;;;;;;4169389;28;20052;-83
2021/01/22 05:01:10;;;;;;;4.75;3.60;;;5.50;99.90;;;;;;4144299;28;20041;-83
2021/01/22 05:03:12;;;;;;;4.78;3.28;;;5.50;99.90;;;;;;4157902;28;20029;-83
2021/01/22 05:05:12;;;;;;;6.75;3.05;;;5.50;99.90;;;;;;4191377;28;21043;-83
2021/01/22 05:07:14;;;;;;;6.00;3.88;;;5.50;99.90;;;;;;4164180;28;20034;-83
2021/01/22 05:09:14;;;;;;;3.47;3.00;;;5.50;99.90;;;;;;4166305;28;20489;-83
2021/01/22 05:11:15;;;;;;;4.70;3.42;;;5.50;99.90;;;;;;4177178;28;20465;-83
2021/01/22 05:13:30;;;;;;;4.63;3.38;;;5.60;99.90;;;;;;4161016;28;20057;-83
2021/01/22 05:15:31;;;;;;;5.63;3.70;;;5.50;99.90;;;;;;4159784;28;20415;-83
2021/01/22 05:17:31;;;;;;;4.53;3.70;;;5.50;99.90;;;;;;4174207;28;20033;-83
2021/01/22 05:19:33;;;;;;;6.90;3.47;;;5.50;99.90;;;;;;4179028;28;20037;-83
2021/01/22 05:21:40;;;;;;;5.53;3.90;;;5.50;99.90;;;;;;4149080;28;20108;-83
2021/01/22 05:23:41;;;;;;;6.88;4.28;;;5.50;99.90;;;;;;4169013;28;20036;-83
2021/01/22 05:26:06;;;;;;;5.40;3.90;;;5.50;99.90;;;;;;4160658;28;20091;-83
2021/01/22 05:28:07;;;;;;;5.90;4.22;;;5.50;99.90;;;;;;4149067;28;20041;-83
2021/01/22 05:30:09;;;;;;;6.07;4.20;;;5.50;99.90;;;;;;4175627;28;20049;-82
2021/01/22 05:32:37;;;;;;;6.65;4.10;;;5.50;99.90;;;;;;4134761;28;20030;-83
2021/01/22 05:34:46;;;;;;;8.10;5.32;;;5.50;99.90;;;;;;4158594;28;20425;-83
2021/01/22 05:36:48;;;;;;;5.80;4.75;;;5.60;99.90;;;;;;4146492;28;20033;-83
2021/01/22 05:38:52;;;;;;;7.88;4.93;;;5.60;99.90;;;;;;4186547;28;20032;-84
2021/01/22 05:41:22;;;;;;;6.65;4.90;;;5.60;99.90;;;;;;4147062;28;20033;-83
2021/01/22 05:43:34;;;;;;;5.18;4.13;;;5.60;99.90;;;;;;4147761;28;20087;-83
2021/01/22 05:45:45;;;;;;;9.43;5.03;;;5.60;99.90;;;;;;4166558;28;20038;-83
2021/01/22 05:47:45;;;;;;;6.50;4.55;;;5.60;99.90;;;;;;4158037;28;20039;-83
2021/01/22 05:49:54;;;;;;;8.00;5.13;;;5.60;99.90;;;;;;4166988;28;20413;-83
2021/01/22 05:52:24;;;;;;;7.47;5.18;;;5.60;99.90;;;;;;4166320;28;20029;-83
2021/01/22 05:54:38;;;;;;;6.70;4.85;;;5.60;99.90;;;;;;4168739;28;20544;-83
2021/01/22 05:56:55;;;;;;;6.43;4.82;;;5.60;99.90;;;;;;4161319;28;20083;-83
2021/01/22 05:58:57;;;;;;;7.53;5.47;;;5.60;99.90;;;;;;4160458;28;20051;-83
2021/01/22 06:01:10;;;;;;;7.90;5.40;;;5.60;99.90;;;;;;4164927;28;20037;-83
2021/01/22 06:03:22;;;;;;;10.15;5.60;;;5.60;99.90;;;;;;4143016;28;20045;-83
2021/01/22 06:05:23;;;;;;;9.13;5.70;;;5.60;99.90;;;;;;4148100;28;20048;-83
2021/01/22 06:07:23;;;;;;;7.28;5.28;;;5.70;99.90;;;;;;4148980;28;20050;-83
2021/01/22 06:09:32;;;;;;;6.30;4.78;;;5.70;99.90;;;;;;4169226;28;20048;-83
2021/01/22 06:11:43;;;;;;;8.65;5.25;;;5.70;99.90;;;;;;4194929;28;20120;-83
2021/01/22 06:13:51;;;;;;;8.40;5.80;;;5.70;99.90;;;;;;4151079;28;20049;-83
2021/01/22 06:15:58;;;;;;;7.13;5.38;;;5.60;99.90;;;;;;4168947;28;20164;-83
2021/01/22 06:18:01;;;;;;;7.28;5.25;;;5.70;99.90;;;;;;4163245;28;20036;-83
2021/01/22 06:20:02;;;;;;;6.80;4.88;;;5.70;99.90;;;;;;4171494;28;20025;-83
2021/01/22 06:22:16;;;;;;;7.93;4.90;;;5.70;99.90;;;;;;4148078;28;20030;-83
2021/01/22 06:24:17;;;;;;;7.50;5.68;;;5.70;99.90;;;;;;4141953;28;20026;-83
2021/01/22 06:26:19;;;;;;;6.95;5.45;;;5.70;99.90;;;;;;4169207;28;20029;-83
2021/01/22 06:28:20;;;;;;;7.55;4.68;;;5.70;99.90;;;;;;4162752;28;20494;-83
2021/01/22 06:30:23;;;;;;;7.85;5.38;;;5.70;99.90;;;;;;4163538;28;20079;-83
2021/01/22 06:32:24;;;;;;;7.70;5.75;;;5.70;99.90;;;;;;4147025;28;20083;-83
2021/01/22 06:34:27;;;;;;;13.43;5.38;;;5.70;99.90;;;;;;4169196;28;20108;-83
2021/01/22 06:36:28;;;;;;;7.85;4.75;;;5.70;99.90;;;;;;4157492;28;20510;-83
2021/01/22 06:38:50;;;;;;;6.63;5.35;;;5.70;99.90;;;;;;4139545;28;20097;-83
2021/01/22 06:40:51;;;;;;;6.40;4.85;;;5.70;99.90;;;;;;4168975;28;20034;-83
2021/01/22 06:42:54;;;;;;;7.40;4.75;;;5.70;99.90;;;;;;4157396;28;20037;-83
2021/01/22 06:44:56;;;;;;;7.47;5.15;;;5.70;99.90;;;;;;4162298;28;20444;-83
2021/01/22 06:46:57;;;;;;;;;;;5.70;99.90;;;;;;4164960;28;20037;-83
2021/01/22 06:49:05;;;;;;;9.82;5.03;;;5.80;99.90;;;;;;4168395;28;19966;-83
2021/01/22 06:51:26;;;;;;;10.65;6.30;;;5.70;99.90;;;;;;4167577;28;20041;-83
2021/01/22 06:53:26;;;;;;;8.48;5.82;;;5.70;99.90;;;;;;4146148;28;20111;-83
2021/01/22 06:55:27;;;;;;;10.63;5.93;;;5.80;99.90;;;;;;4160503;28;20034;-83
2021/01/22 06:57:28;;;;;;;10.55;6.13;;;5.70;99.90;;;;;;4170123;28;20116;-83
2021/01/22 06:59:35;;;;;;;8.60;5.20;;;5.70;99.90;;;;;;4161978;28;20525;-83
2021/01/22 07:01:35;;;;;;;7.47;5.57;;;5.70;99.90;;;;;;4166198;28;20049;-83
2021/01/22 07:03:47;;;;;;;7.80;5.10;;;5.70;99.90;;;;;;4166538;28;20049;-83
2021/01/22 07:05:50;;;;;;;8.40;5.38;;;5.80;99.90;;;;;;4158311;28;20041;-83
2021/01/22 07:07:50;;;;;;;8.68;6.38;;;5.80;99.90;;;;;;4146231;28;20406;-83
2021/01/22 07:09:53;;;;;;;7.15;5.05;;;5.80;99.90;;;;;;4154986;28;20044;-83
2021/01/22 07:11:55;;;;;;;8.77;5.63;;;5.80;99.90;;;;;;4179718;28;20018;-83
2021/01/22 07:13:56;;;;;;;7.85;5.50;;;5.80;99.90;;;;;;4144543;28;20034;-83
2021/01/22 07:16:07;;;;;;;10.82;6.28;;;5.80;99.90;;;;;;4178275;28;20029;-81
2021/01/22 07:18:10;;;;;;;8.98;5.50;;;5.80;99.90;;;;;;4159920;28;20029;-81
2021/01/22 07:20:17;;;;;;;9.68;6.25;;;5.80;99.90;;;;;;4157971;28;20037;-81
2021/01/22 07:22:48;;;;;;;11.35;6.15;;;5.80;99.90;;;;;;4142428;28;20025;-81
2021/01/22 07:25:07;;;;;;;8.95;5.57;;;5.80;99.90;;;;;;4146351;28;20029;-81
2021/01/22 07:27:13;;;;;;;7.97;5.50;;;5.80;99.90;;;;;;4152226;28;20421;-80
2021/01/22 07:29:23;;;;;;;9.55;6.28;;;5.80;99.90;;;;;;4155079;28;20037;-81
2021/01/22 07:31:48;;;;;;;11.13;6.60;;;5.80;99.90;;;;;;4162048;28;20647;-81
2021/01/22 07:34:28;;;;;;;9.38;5.93;;;5.80;99.90;;;;;;4141388;28;20442;-80
2021/01/22 07:36:29;;;;;;;11.02;6.53;;;5.80;99.90;;;;;;4152108;28;20456;-81
2021/01/22 07:38:32;;;;;;;8.07;6.00;;;5.80;99.90;;;;;;4146350;28;20113;-81
2021/01/22 07:40:32;;;;;;;11.63;5.90;;;5.80;99.90;;;;;;4171973;28;20029;-81
2021/01/22 07:42:33;;;;;;;10.98;6.32;;;5.80;99.90;;;;;;4172520;28;20064;-81
2021/01/22 07:44:35;;;;;;;10.27;5.55;;;5.80;99.90;;;;;;4169869;28;20030;-80
2021/01/22 07:46:45;;;;;;;9.02;6.13;;;5.80;99.90;;;;;;4141977;28;20033;-80
2021/01/22 07:48:48;;;;;;;10.63;6.68;;;5.80;99.90;;;;;;4152600;28;20116;-80
2021/01/22 07:50:53;;;;;;;9.35;5.80;;;5.80;99.90;;;;;;4164112;28;20034;-80
2021/01/22 07:52:55;;;;;;;11.20;6.07;;;5.80;99.90;;;;;;4160774;28;20064;-80
2021/01/22 07:55:13;;;;;;;17.85;6.32;;;5.80;99.90;;;;;;4158491;28;20033;-80
2021/01/22 07:57:41;;;;;;;11.20;6.07;;;5.80;99.90;;;;;;4153744;28;20033;-80
2021/01/22 07:59:43;;;;;;;10.27;6.20;;;5.80;99.90;;;;;;4168517;28;20041;-80
2021/01/22 08:01:50;;;;;;;7.65;5.78;;;5.80;99.90;;;;;;4145343;28;20553;-80
2021/01/22 08:03:51;;;;;;;8.93;5.45;;;5.80;99.90;;;;;;4141955;28;20030;-80
2021/01/22 08:05:58;;;;;;;9.18;5.53;;;5.80;99.90;;;;;;4162000;28;20466;-80
2021/01/22 08:08:27;;;;;;;9.60;6.18;;;5.80;99.90;;;;;;4146186;28;20343;-80
2021/01/22 08:10:32;;;;;;;10.40;6.47;;;5.80;99.90;;;;;;4169273;28;20025;-80
2021/01/22 08:13:15;;;;;;;10.15;5.70;;;5.80;99.90;;;;;;4161447;28;20053;-80
2021/01/22 08:15:17;;;;;;;9.45;6.10;;;5.80;99.90;;;;;;4160894;28;20120;-80
2021/01/22 08:17:25;;;;;;;9.75;5.32;;;5.80;99.90;;;;;;4155664;28;20026;-81
2021/01/22 08:19:26;;;;;;;8.50;5.70;;;5.90;99.90;;;;;;4167225;28;20053;-81
2021/01/22 08:21:30;;;;;;;9.80;5.65;;;5.80;99.90;;;;;;4172453;28;20044;-80
2021/01/22 08:23:42;;;;;;;10.02;5.28;;;5.90;99.90;;;;;;4159531;28;20049;-80
2021/01/22 08:25:45;;;;;;;7.47;5.35;;;5.90;99.90;;;;;;4151959;28;20026;-80
2021/01/22 08:28:01;;;;;;;;;;;5.90;99.90;;;;;;4164418;28;20055;-80
2021/01/22 08:30:04;;;;;;;7.05;4.57;;;5.90;99.90;;;;;;4170451;28;19985;-80
2021/01/22 08:32:08;;;;;;;10.82;5.60;;;5.90;99.90;;;;;;4163378;28;20034;-80
2021/01/22 08:34:16;;;;;;;10.80;6.07;;;5.90;99.90;;;;;;4164051;28;20048;-80
2021/01/22 08:36:20;;;;;;;10.02;5.65;;;5.90;99.90;;;;;;4169246;28;20037;-80
2021/01/22 08:38:23;;;;;;;9.23;5.63;;;5.90;99.90;;;;;;4148568;28;20189;-80
2021/01/22 08:40:44;;;;;;;11.00;5.65;;;5.90;99.90;;;;;;4146698;28;20089;-80
2021/01/22 08:43:09;;;;;;;7.90;5.32;;;5.90;99.90;;;;;;4171491;28;20409;-80
2021/01/22 08:45:10;;;;;;;12.30;5.30;;;6.00;99.90;;;;;;4168255;28;20029;-80
2021/01/22 08:47:11;;;;;;;8.18;5.28;;;6.00;99.90;;;;;;4145541;28;20123;-80
2021/01/22 08:49:14;;;;;;;13.00;6.03;;;6.00;99.90;;;;;;4165541;28;20112;-81
2021/01/22 08:51:24;;;;;;;9.18;5.30;;;6.10;99.90;;;;;;4161271;28;20034;-81
2021/01/22 08:53:25;;;;;;;8.13;5.03;;;6.00;99.90;;;;;;4171222;28;20104;-81
2021/01/22 08:55:26;;;;;;;11.40;5.32;;;6.00;99.90;;;;;;4161381;28;20034;-81
2021/01/22 08:57:29;;;;;;;10.52;4.82;;;6.10;99.90;;;;;;4174553;28;20749;-80
2021/01/22 08:59:45;;;;;;;;;;;6.10;99.90;;;;;;4162238;28;20042;-80
2021/01/22 09:02:03;;;;;;;10.45;5.57;;;6.10;99.90;;;;;;4162726;28;19958;-81
2021/01/22 09:04:19;;;;;;;7.95;5.03;;;6.10;99.90;;;;;;4161151;28;20037;-80
2021/01/22 09:07:11;;;;;;;10.10;5.65;;;6.20;99.90;;;;;;4162417;28;20045;-80
2021/01/22 09:09:13;;;;;;;11.05;5.82;;;6.20;99.90;;;;;;4129204;28;20057;-80
2021/01/22 09:11:34;;;;;;;7.60;4.90;;;6.20;99.90;;;;;;4173513;28;20032;-81
2021/01/22 09:13:35;;;;;;;10.68;5.57;;;6.20;99.90;;;;;;4161493;28;20055;-81
2021/01/22 09:15:36;;;;;;;11.68;5.78;;;6.20;99.90;;;;;;4146058;28;20078;-80
2021/01/22 09:17:50;;;;;;;10.55;5.72;;;6.30;99.90;;;;;;4161975;28;20103;-81
2021/01/22 09:20:00;;;;;;;13.10;6.20;;;6.30;99.90;;;;;;4176558;28;20048;-81
2021/01/22 09:22:01;;;;;;;9.48;5.90;;;6.20;99.90;;;;;;4165036;28;20037;-81
2021/01/22 09:24:02;;;;;;;8.38;5.43;;;6.20;99.90;;;;;;4154580;28;20105;-81
2021/01/22 09:26:03;;;;;;;15.90;6.25;;;6.20;99.90;;;;;;4161813;28;20160;-81
2021/01/22 09:28:04;;;;;;;12.02;6.03;;;6.30;99.90;;;;;;4154257;28;20645;-81
2021/01/22 09:30:08;;;;;;;12.13;6.25;;;6.30;99.90;;;;;;4169871;28;20040;-80
2021/01/22 09:32:09;;;;;;;11.25;6.22;;;6.30;99.90;;;;;;4166303;28;20544;-81
2021/01/22 09:34:09;;;;;;;16.60;6.20;;;6.30;99.90;;;;;;4163888;28;20034;-81
2021/01/22 09:36:10;;;;;;;12.40;6.18;;;6.40;99.90;;;;;;4173482;28;20032;-81
2021/01/22 09:38:12;;;;;;;12.50;6.50;;;6.30;99.90;;;;;;4161944;28;20135;-81
2021/01/22 09:40:14;;;;;;;10.15;6.65;;;6.40;99.90;;;;;;4161035;28;20493;-82
2021/01/22 09:42:16;;;;;;;12.27;6.80;;;6.30;99.90;;;;;;4146516;28;20639;-81
2021/01/22 09:44:18;;;;;;;15.30;7.03;;;6.40;99.90;;;;;;4161938;28;20033;-81
2021/01/22 09:46:20;;;;;;;11.82;6.55;;;6.40;99.90;;;;;;4153075;28;20033;-81
2021/01/22 09:48:20;;;;;;;11.43;6.10;;;6.40;99.90;;;;;;4166090;28;20068;-82
2021/01/22 09:50:21;;;;;;;10.35;6.40;;;6.50;99.90;;;;;;4163058;28;20033;-80
2021/01/22 09:52:22;;;;;;;11.77;6.90;;;6.50;99.90;;;;;;4178673;28;20037;-81
2021/01/22 09:54:24;;;;;;;20.52;7.97;;;6.50;99.90;;;;;;4148236;28;20117;-81
2021/01/22 09:56:44;;;;;;;11.40;6.53;;;6.50;99.90;;;;;;4150579;28;20046;-81
2021/01/22 09:58:47;;;;;;;12.95;6.82;;;6.50;99.90;;;;;;4145825;28;20057;-81
2021/01/22 10:00:48;;;;;;;10.75;6.55;;;6.60;99.90;;;;;;4158233;28;20433;-81
2021/01/22 10:02:49;;;;;;;13.13;7.20;;;6.60;99.90;;;;;;4165253;28;20037;-81
2021/01/22 10:04:57;;;;;;;11.65;7.30;;;6.60;99.90;;;;;;4165757;28;20041;-81
2021/01/22 10:07:04;;;;;;;14.00;7.57;;;6.50;99.90;;;;;;4141608;28;20048;-81
2021/01/22 10:09:10;;;;;;;13.65;7.22;;;6.60;99.90;;;;;;4184421;28;20039;-81
2021/01/22 10:11:12;;;;;;;16.65;8.15;;;6.60;99.90;;;;;;4167477;28;20033;-81
2021/01/22 10:13:20;;;;;;;13.57;6.72;;;6.60;99.90;;;;;;4170934;28;20497;-81
2021/01/22 10:15:22;;;;;;;13.65;7.15;;;6.60;99.90;;;;;;4151350;28;20041;-82
2021/01/22 10:17:24;;;;;;;11.32;6.50;;;6.60;99.90;;;;;;4164668;28;20029;-81
2021/01/22 10:19:26;;;;;;;12.55;5.97;;;6.60;99.90;;;;;;4161837;28;20120;-81
2021/01/22 10:21:27;;;;;;;12.77;6.20;;;6.70;99.90;;;;;;4163186;28;20117;-81
2021/01/22 10:23:27;;;;;;;10.73;5.95;;;6.70;99.90;;;;;;4161595;28;20428;-81
2021/01/22 10:25:29;;;;;;;10.65;6.13;;;6.70;99.90;;;;;;4166572;28;20415;-82
2021/01/22 10:27:40;;;;;;;11.30;5.18;;;6.70;99.90;;;;;;4149595;28;20034;-82
2021/01/22 10:29:42;;;;;;;9.57;5.63;;;6.80;99.90;;;;;;4151485;28;20109;-81
2021/01/22 10:31:44;;;;;;;11.23;6.47;;;6.80;99.90;;;;;;4160111;28;20719;-82
2021/01/22 10:33:47;;;;;;;13.82;6.40;;;6.90;99.90;;;;;;4155099;28;20030;-82
2021/01/22 10:35:48;;;;;;;10.93;6.45;;;6.90;99.90;;;;;;4166983;28;20188;-82
2021/01/22 10:37:49;;;;;;;11.82;6.20;;;6.90;99.90;;;;;;4160799;28;20030;-81
2021/01/22 10:39:56;;;;;;;14.02;6.55;;;6.90;99.90;;;;;;4153450;28;20030;-81
2021/01/22 10:41:57;;;;;;;11.15;6.40;;;6.80;99.90;;;;;;4171440;28;20059;-82
2021/01/22 10:44:04;;;;;;;10.90;6.43;;;6.80;99.90;;;;;;4193684;28;20025;-82
2021/01/22 10:46:16;;;;;;;10.38;6.43;;;6.90;99.90;;;;;;4166873;28;21095;-81
2021/01/22 10:48:18;;;;;;;10.02;5.75;;;6.90;99.90;;;;;;4157453;28;20436;-81
2021/01/22 10:50:24;;;;;;;8.63;5.15;;;6.90;99.90;;;;;;4163855;28;20045;-82
2021/01/22 10:52:26;;;;;;;12.10;6.10;;;7.00;99.90;;;;;;4152603;28;20552;-81
2021/01/22 10:54:29;;;;;;;11.48;6.03;;;6.90;99.90;;;;;;4169243;28;20132;-81
2021/01/22 10:56:30;;;;;;;10.15;5.70;;;7.00;99.90;;;;;;4150142;28;20065;-82
2021/01/22 10:58:38;;;;;;;12.25;6.50;;;6.90;99.90;;;;;;4161394;28;20064;-81
2021/01/22 11:00:45;;;;;;;10.27;5.30;;;6.90;99.90;;;;;;4144500;28;20053;-81